createdAt,value
2022-12-15T00:01:38.220Z,86.35
2022-12-15T00:04:32.975Z,88.24
2022-12-15T00:07:24.689Z,88.07
2022-12-15T00:10:15.754Z,88.27
2022-12-15T00:13:12.405Z,85.81
2022-12-15T00:15:59.955Z,86.20
2022-12-15T00:18:48.294Z,85.15
2022-12-15T00:21:36.505Z,85.69
2022-12-15T00:24:34.388Z,87.11
2022-12-15T00:27:28.576Z,87.19
2022-12-15T00:30:22.569Z,87.61
2022-12-15T00:33:17.330Z,87.71
2022-12-15T00:36:06.500Z,86.72
2022-12-15T00:38:53.422Z,86.79
2022-12-15T00:41:20.623Z,87.26
2022-12-15T00:43:54.950Z,88.98
2022-12-15T00:46:57.263Z,88.33
2022-12-15T00:49:48.366Z,87.65
2022-12-15T00:52:41.859Z,86.92
2022-12-15T00:55:34.939Z,87.51
2022-12-15T00:58:27.846Z,87.31
2022-12-15T01:01:19.647Z,86.86
2022-12-15T01:04:13.360Z,86.70
2022-12-15T01:07:04.037Z,87.10
2022-12-15T01:09:54.033Z,86.55
2022-12-15T01:12:45.223Z,86.40
2022-12-15T01:15:39.076Z,86.68
2022-12-15T01:18:30.274Z,86.41
2022-12-15T01:21:03.099Z,86.40
2022-12-15T01:23:36.262Z,86.34
2022-12-15T01:26:05.406Z,85.65
2022-12-15T01:28:36.056Z,85.82
2022-12-15T01:31:14.878Z,86.48
2022-12-15T01:33:49.054Z,86.44
2022-12-15T01:36:24.874Z,86.98
2022-12-15T01:38:59.567Z,86.32
2022-12-15T01:41:29.912Z,85.88
2022-12-15T01:44:30.106Z,86.76
2022-12-15T01:47:00.393Z,86.85
2022-12-15T01:49:30.854Z,87.11
2022-12-15T01:52:11.477Z,87.05
2022-12-15T01:54:50.084Z,87.65
2022-12-15T01:57:23.395Z,87.58
2022-12-15T02:00:12.538Z,87.50
2022-12-15T02:02:50.045Z,87.34
2022-12-15T02:05:32.499Z,86.51
2022-12-15T02:08:08.757Z,87.39
2022-12-15T02:11:18.906Z,87.57
2022-12-15T02:14:09.395Z,88.06
2022-12-15T02:16:57.349Z,87.90
2022-12-15T02:20:06.848Z,87.84
2022-12-15T02:23:14.708Z,88.00
2022-12-15T02:26:04.034Z,88.15
2022-12-15T02:28:51.147Z,87.98
2022-12-15T02:31:52.819Z,87.57
2022-12-15T02:34:41.920Z,87.88
2022-12-15T02:37:29.313Z,87.80
2022-12-15T02:40:14.536Z,87.62
2022-12-15T02:42:51.558Z,87.72
2022-12-15T02:45:27.161Z,87.61
2022-12-15T02:48:37.705Z,88.06
2022-12-15T02:51:34.121Z,88.20
2022-12-15T02:54:09.849Z,88.29
2022-12-15T02:56:59.943Z,89.01
2022-12-15T02:59:44.993Z,88.99
2022-12-15T03:02:15.582Z,89.10
2022-12-15T03:04:47.606Z,88.51
2022-12-15T03:07:18.584Z,88.43
2022-12-15T03:09:56.281Z,89.00
2022-12-15T03:12:27.896Z,88.71
2022-12-15T03:14:58.099Z,88.90
2022-12-15T03:17:26.745Z,89.35
2022-12-15T03:19:56.142Z,89.56
2022-12-15T03:22:29.283Z,89.64
2022-12-15T03:25:06.454Z,89.34
2022-12-15T03:27:40.625Z,88.98
2022-12-15T03:30:16.844Z,87.83
2022-12-15T03:32:44.030Z,89.04
2022-12-15T03:35:16.967Z,89.24
2022-12-15T03:38:01.084Z,89.01
2022-12-15T03:40:31.072Z,89.25
2022-12-15T03:42:58.807Z,89.78
2022-12-15T03:45:30.793Z,89.53
2022-12-15T03:48:11.607Z,89.12
2022-12-15T03:50:49.710Z,88.86
2022-12-15T03:53:17.812Z,88.88
2022-12-15T03:55:50.383Z,88.21
2022-12-15T03:58:28.116Z,88.22
2022-12-15T04:01:08.994Z,88.54
2022-12-15T04:03:38.850Z,88.69
2022-12-15T04:06:11.968Z,87.88
2022-12-15T04:09:01.108Z,87.62
2022-12-15T04:11:45.446Z,87.71
2022-12-15T04:14:17.648Z,88.40
2022-12-15T04:16:56.151Z,87.10
2022-12-15T04:19:44.519Z,86.73
2022-12-15T04:22:26.863Z,87.05
2022-12-15T04:25:20.931Z,86.31
2022-12-15T04:28:06.528Z,86.15
2022-12-15T04:31:01.555Z,85.92
2022-12-15T04:33:59.857Z,87.33
2022-12-15T04:36:46.640Z,87.03
2022-12-15T04:39:37.566Z,86.45
2022-12-15T04:42:27.333Z,86.55
2022-12-15T04:45:20.990Z,89.28
2022-12-15T04:48:12.279Z,89.33
2022-12-15T04:51:03.012Z,89.22
2022-12-15T04:53:51.882Z,87.78
2022-12-15T04:56:41.596Z,88.85
2022-12-15T04:59:36.811Z,88.69
2022-12-15T05:02:25.000Z,88.82
2022-12-15T05:05:21.375Z,88.47
2022-12-15T05:08:24.271Z,88.27
2022-12-15T05:11:23.389Z,88.26
2022-12-15T05:14:13.164Z,88.11
2022-12-15T05:17:01.079Z,88.19
2022-12-15T05:19:58.119Z,87.44
2022-12-15T05:22:54.775Z,87.53
2022-12-15T05:25:43.659Z,87.62
2022-12-15T05:28:35.920Z,87.53
2022-12-15T05:31:27.037Z,87.55
2022-12-15T05:34:30.539Z,88.21
2022-12-15T05:37:01.879Z,88.13
2022-12-15T05:39:36.456Z,88.05
2022-12-15T05:42:05.211Z,88.08
2022-12-15T05:44:34.999Z,87.73
2022-12-15T05:47:02.306Z,86.92
2022-12-15T05:49:31.662Z,86.75
2022-12-15T05:52:10.063Z,86.67
2022-12-15T05:54:43.807Z,86.45
2022-12-15T05:57:23.511Z,86.32
2022-12-15T05:59:52.273Z,85.74
2022-12-15T06:02:37.981Z,85.49
2022-12-15T06:05:14.272Z,85.60
2022-12-15T06:07:50.397Z,85.85
2022-12-15T06:10:23.714Z,87.02
2022-12-15T06:13:04.569Z,86.54
2022-12-15T06:15:35.960Z,86.25
2022-12-15T06:18:05.625Z,88.32
2022-12-15T06:20:38.879Z,88.52
2022-12-15T06:23:18.673Z,90.30
2022-12-15T06:25:52.096Z,90.79
2022-12-15T06:28:23.982Z,90.47
2022-12-15T06:30:58.141Z,88.87
2022-12-15T06:33:29.267Z,87.19
2022-12-15T06:36:07.452Z,88.42
2022-12-15T06:38:43.616Z,89.05
2022-12-15T06:41:18.827Z,88.94
2022-12-15T06:43:58.187Z,88.65
2022-12-15T06:46:28.064Z,89.10
2022-12-15T06:48:58.867Z,88.33
2022-12-15T06:51:52.889Z,88.69
2022-12-15T06:54:24.460Z,88.39
2022-12-15T06:57:07.993Z,88.60
2022-12-15T06:59:40.828Z,88.73
2022-12-15T07:02:28.873Z,88.57
2022-12-15T07:05:03.952Z,88.67
2022-12-15T07:07:37.220Z,88.42
2022-12-15T07:10:16.170Z,88.75
2022-12-15T07:12:55.476Z,88.80
2022-12-15T07:15:48.087Z,88.85
2022-12-15T07:18:22.530Z,89.14
2022-12-15T07:20:55.503Z,88.47
2022-12-15T07:23:52.863Z,88.65
2022-12-15T07:26:20.087Z,88.58
2022-12-15T07:28:50.060Z,88.09
2022-12-15T07:31:24.787Z,88.56
2022-12-15T07:33:59.633Z,89.89
2022-12-15T07:36:33.978Z,89.79
2022-12-15T07:39:10.905Z,88.86
2022-12-15T07:41:41.397Z,88.71
2022-12-15T07:44:09.001Z,88.32
2022-12-15T07:46:49.068Z,88.62
2022-12-15T07:49:19.990Z,90.51
2022-12-15T07:51:59.614Z,90.14
2022-12-15T07:54:34.277Z,91.06
2022-12-15T07:57:16.106Z,88.97
2022-12-15T07:59:49.127Z,90.14
2022-12-15T08:02:29.567Z,88.75
2022-12-15T08:05:06.917Z,89.69
2022-12-15T08:07:41.638Z,89.84
2022-12-15T08:10:27.170Z,89.33
2022-12-15T08:12:58.246Z,90.05
2022-12-15T08:15:28.732Z,90.21
2022-12-15T08:18:10.225Z,90.73
2022-12-15T08:20:50.231Z,91.10
2022-12-15T08:26:14.301Z,90.41
2022-12-15T08:28:48.577Z,89.62
2022-12-15T08:31:23.767Z,90.41
2022-12-15T08:33:50.970Z,90.58
2022-12-15T08:36:21.556Z,89.74
2022-12-15T08:38:52.384Z,89.71
2022-12-15T08:41:55.688Z,91.62
2022-12-15T08:44:26.012Z,90.99
2022-12-15T08:47:11.539Z,90.58
2022-12-15T08:49:52.316Z,89.23
2022-12-15T08:52:24.284Z,88.95
2022-12-15T08:54:56.342Z,88.64
2022-12-15T08:57:35.912Z,89.68
2022-12-15T09:00:05.559Z,88.99
2022-12-15T09:02:40.220Z,90.17
2022-12-15T09:05:13.127Z,90.80
2022-12-15T09:08:07.052Z,90.58
2022-12-15T09:10:35.510Z,89.06
2022-12-15T09:13:04.811Z,88.41
2022-12-15T09:16:07.120Z,88.59
2022-12-15T09:18:30.378Z,88.66
2022-12-15T09:21:12.724Z,88.52
2022-12-15T09:24:32.209Z,88.99
2022-12-15T09:27:20.742Z,88.33
2022-12-15T09:29:52.603Z,89.46
2022-12-15T09:35:10.805Z,90.07
2022-12-15T09:37:40.068Z,91.12
2022-12-15T09:40:19.600Z,89.48
2022-12-15T09:43:33.536Z,87.41
2022-12-15T09:46:06.944Z,87.12
2022-12-15T09:48:47.968Z,86.67
2022-12-15T09:51:18.051Z,86.10
2022-12-15T09:53:56.688Z,87.65
2022-12-15T09:56:43.657Z,87.87
2022-12-15T10:00:03.125Z,87.04
2022-12-15T10:02:47.128Z,88.33
2022-12-15T10:08:45.866Z,88.11
2022-12-15T10:11:26.785Z,88.25
2022-12-15T10:14:21.555Z,87.18
2022-12-15T10:17:53.664Z,87.52
2022-12-15T10:20:33.127Z,87.12
2022-12-15T10:23:12.958Z,88.66
2022-12-15T10:25:59.464Z,87.06
2022-12-15T10:28:41.147Z,87.45
2022-12-15T10:31:35.590Z,86.89
2022-12-15T10:34:26.803Z,87.65
2022-12-15T10:37:14.929Z,87.32
2022-12-15T10:39:51.000Z,87.02
2022-12-15T10:42:36.273Z,87.45
2022-12-15T10:45:31.186Z,86.75
2022-12-15T10:48:01.734Z,86.41
2022-12-15T10:50:37.529Z,87.56
2022-12-15T10:53:53.905Z,87.09
2022-12-15T10:56:36.169Z,86.55
2022-12-15T10:59:27.302Z,86.54
2022-12-15T11:01:55.064Z,86.09
2022-12-15T11:04:28.508Z,86.09
2022-12-15T11:07:08.501Z,86.73
2022-12-15T11:09:40.016Z,85.29
2022-12-15T11:13:09.167Z,86.49
2022-12-15T11:15:59.121Z,85.37
2022-12-15T11:18:53.036Z,85.29
2022-12-15T11:21:28.644Z,84.78
2022-12-15T11:24:29.668Z,85.51
2022-12-15T11:27:15.034Z,86.06
2022-12-15T11:30:01.951Z,86.18
2022-12-15T11:32:41.250Z,84.04
2022-12-15T11:35:16.320Z,86.13
2022-12-15T11:37:58.122Z,86.83
2022-12-15T11:41:06.770Z,86.76
2022-12-15T11:43:45.547Z,87.35
2022-12-15T11:46:29.283Z,86.56
2022-12-15T11:49:04.944Z,87.83
2022-12-15T11:52:05.178Z,89.83
2022-12-15T11:54:47.604Z,88.05
2022-12-15T11:57:51.296Z,88.00
2022-12-15T12:00:21.501Z,87.14
2022-12-15T12:03:22.121Z,86.81
2022-12-15T12:06:15.166Z,85.54
2022-12-15T12:09:31.111Z,86.16
2022-12-15T12:12:13.800Z,86.99
2022-12-15T12:15:07.150Z,86.63
2022-12-15T12:18:00.172Z,87.97
2022-12-15T12:20:52.246Z,87.01
2022-12-15T12:24:00.942Z,87.52
2022-12-15T12:27:02.449Z,86.73
2022-12-15T12:29:55.529Z,87.29
2022-12-15T12:32:56.076Z,87.71
2022-12-15T12:35:37.334Z,87.95
2022-12-15T12:38:09.507Z,86.57
2022-12-15T12:41:14.691Z,86.42
2022-12-15T12:43:55.755Z,86.36
2022-12-15T12:46:36.740Z,88.04
2022-12-15T12:49:22.789Z,86.57
2022-12-15T12:52:00.590Z,87.85
2022-12-15T12:54:45.343Z,88.02
2022-12-15T12:57:16.617Z,88.31
2022-12-15T13:00:22.267Z,87.65
2022-12-15T13:03:15.728Z,87.99
2022-12-15T13:05:47.100Z,87.80
2022-12-15T13:08:28.659Z,87.99
2022-12-15T13:11:38.677Z,89.20
2022-12-15T13:14:51.719Z,88.76
2022-12-15T13:18:01.263Z,88.32
2022-12-15T13:20:34.037Z,88.86
2022-12-15T13:23:21.373Z,89.71
2022-12-15T13:26:03.636Z,89.84
2022-12-15T13:28:38.998Z,90.08
2022-12-15T13:31:23.800Z,89.87
2022-12-15T13:34:16.657Z,88.77
2022-12-15T13:36:48.078Z,89.03
2022-12-15T13:39:21.016Z,88.49
2022-12-15T13:42:32.530Z,88.52
2022-12-15T13:45:35.870Z,88.74
2022-12-15T13:48:19.415Z,88.58
2022-12-15T13:54:28.797Z,88.06
2022-12-15T13:57:17.298Z,88.31
2022-12-15T13:59:55.165Z,87.91
2022-12-15T14:02:23.611Z,87.97
2022-12-15T14:05:29.435Z,87.37
2022-12-15T14:08:19.719Z,87.73
2022-12-15T14:10:54.401Z,87.24
2022-12-15T14:13:28.842Z,87.99
2022-12-15T14:16:15.745Z,88.24
2022-12-15T14:19:02.247Z,89.05
2022-12-15T14:21:33.115Z,88.37
2022-12-15T14:27:14.157Z,88.27
2022-12-15T14:29:45.410Z,88.67
2022-12-15T14:32:19.955Z,88.13
2022-12-15T14:35:00.399Z,87.86
2022-12-15T14:37:33.669Z,88.15
2022-12-15T14:40:04.957Z,88.03
2022-12-15T14:42:32.312Z,88.25
2022-12-15T14:45:08.197Z,88.14
2022-12-15T14:47:38.536Z,88.46
2022-12-15T14:50:11.395Z,88.69
2022-12-15T14:52:48.946Z,88.63
2022-12-15T14:55:25.329Z,89.09
2022-12-15T14:57:59.181Z,88.80
2022-12-15T15:00:48.104Z,88.40
2022-12-15T15:03:14.738Z,87.44
2022-12-15T15:03:41.717Z,88.05
2022-12-15T15:06:15.382Z,88.01
2022-12-15T15:08:59.091Z,89.04
2022-12-15T15:12:05.427Z,88.75
2022-12-15T15:14:42.234Z,88.45
2022-12-15T15:17:35.735Z,88.53
2022-12-15T15:20:25.541Z,88.47
2022-12-15T15:23:16.504Z,88.69
2022-12-15T15:26:04.458Z,88.56
2022-12-15T15:28:46.474Z,88.32
2022-12-15T15:31:28.535Z,88.13
2022-12-15T15:34:04.597Z,88.11
2022-12-15T15:36:36.058Z,88.34
2022-12-15T15:39:23.807Z,88.45
2022-12-15T15:42:10.375Z,89.86
2022-12-15T15:44:43.044Z,88.85
2022-12-15T15:47:36.898Z,89.13
2022-12-15T15:50:14.849Z,89.00
2022-12-15T15:52:47.095Z,88.41
2022-12-15T15:55:27.036Z,88.40
2022-12-15T15:57:54.410Z,88.63
2022-12-15T16:00:38.885Z,88.63
2022-12-15T16:03:08.306Z,88.33
2022-12-15T16:05:43.948Z,88.37
2022-12-15T16:08:17.768Z,88.41
2022-12-15T16:10:49.200Z,88.71
2022-12-15T16:13:48.214Z,89.01
2022-12-15T16:16:22.264Z,88.86
2022-12-15T16:18:55.376Z,88.45
2022-12-15T16:21:33.860Z,88.44
2022-12-15T16:24:16.783Z,88.61
2022-12-15T16:26:55.711Z,89.22
2022-12-15T16:29:25.310Z,88.92
2022-12-15T16:31:56.085Z,89.05
2022-12-15T16:34:24.702Z,88.73
2022-12-15T16:37:05.141Z,88.65
2022-12-15T16:39:40.836Z,88.56
2022-12-15T16:42:17.750Z,89.08
2022-12-15T16:44:56.405Z,88.83
2022-12-15T16:47:43.739Z,88.93
2022-12-15T16:50:28.396Z,89.25
2022-12-15T16:53:02.574Z,89.08
2022-12-15T16:55:48.199Z,89.60
2022-12-15T16:58:33.010Z,89.33
2022-12-15T17:01:03.945Z,88.98
2022-12-15T17:03:37.661Z,88.93
2022-12-15T17:06:10.221Z,89.75
2022-12-15T17:08:48.974Z,89.28
2022-12-15T17:11:35.926Z,89.55
2022-12-15T17:14:19.338Z,89.07
2022-12-15T17:16:56.338Z,89.02
2022-12-15T17:19:31.610Z,89.15
2022-12-15T17:22:01.961Z,89.83
2022-12-15T17:24:29.145Z,89.39
2022-12-15T17:27:03.852Z,89.70
2022-12-15T17:29:32.890Z,90.63
2022-12-15T17:32:10.588Z,90.42
2022-12-15T17:34:44.092Z,89.63
2022-12-15T17:37:17.538Z,90.11
2022-12-15T17:39:50.790Z,89.81
2022-12-15T17:42:31.886Z,89.66
2022-12-15T17:45:02.055Z,89.96
2022-12-15T17:47:33.924Z,89.98
2022-12-15T17:50:12.844Z,90.27
2022-12-15T17:52:46.813Z,90.49
2022-12-15T17:55:19.077Z,91.19
2022-12-15T17:57:56.638Z,90.90
2022-12-15T18:00:32.070Z,90.85
2022-12-15T18:03:04.601Z,90.71
2022-12-15T18:05:37.708Z,91.15
2022-12-15T18:08:17.729Z,90.68
2022-12-15T18:10:57.722Z,90.89
2022-12-15T18:13:42.704Z,91.42
2022-12-15T18:16:13.870Z,91.25
2022-12-15T18:18:43.407Z,91.23
2022-12-15T18:21:31.757Z,91.34
2022-12-15T18:24:29.451Z,91.67
2022-12-15T18:27:05.332Z,90.94
2022-12-15T18:29:39.847Z,90.52
2022-12-15T18:32:10.718Z,90.45
2022-12-15T18:34:44.356Z,90.75
2022-12-15T18:37:29.283Z,90.77
2022-12-15T18:40:03.981Z,90.05
2022-12-15T18:42:40.725Z,90.42
2022-12-15T18:45:28.362Z,89.43
2022-12-15T18:48:01.057Z,89.53
2022-12-15T18:50:32.405Z,89.53
2022-12-15T18:53:07.707Z,89.25
2022-12-15T18:55:42.859Z,89.52
2022-12-15T18:58:28.604Z,89.03
2022-12-15T19:01:02.861Z,89.16
2022-12-15T19:03:42.649Z,89.79
2022-12-15T19:06:36.025Z,89.16
2022-12-15T19:09:10.068Z,89.28
2022-12-15T19:11:37.611Z,88.83
2022-12-15T19:14:33.862Z,89.04
2022-12-15T19:17:24.322Z,88.95
2022-12-15T19:20:36.538Z,89.66
2022-12-15T19:23:08.117Z,88.97
2022-12-15T19:25:43.522Z,89.17
2022-12-15T19:28:29.018Z,88.54
2022-12-15T19:31:11.630Z,88.62
2022-12-15T19:33:50.011Z,88.61
2022-12-15T19:36:26.029Z,88.63
2022-12-15T19:39:07.407Z,88.57
2022-12-15T19:41:46.677Z,88.60
2022-12-15T19:44:14.999Z,88.85
2022-12-15T19:46:45.228Z,88.90
2022-12-15T19:49:15.091Z,88.49
2022-12-15T19:51:50.747Z,88.71
2022-12-15T19:54:27.046Z,89.22
2022-12-15T19:56:59.789Z,89.11
2022-12-15T19:59:28.246Z,89.08
2022-12-15T20:02:05.651Z,88.94
2022-12-15T20:04:37.725Z,89.03
2022-12-15T20:07:29.047Z,89.01
2022-12-15T20:10:08.667Z,88.94
2022-12-15T20:12:42.936Z,88.58
2022-12-15T20:15:15.764Z,88.98
2022-12-15T20:17:50.569Z,89.16
2022-12-15T20:20:31.013Z,89.18
2022-12-15T20:23:06.225Z,89.91
2022-12-15T20:25:38.699Z,89.26
2022-12-15T20:28:24.416Z,89.37
2022-12-15T20:31:08.635Z,89.22
2022-12-15T20:33:45.359Z,89.29
2022-12-15T20:36:21.094Z,88.87
2022-12-15T20:38:56.482Z,88.79
2022-12-15T20:41:34.060Z,88.85
2022-12-15T20:44:08.898Z,88.69
2022-12-15T20:46:39.153Z,88.89
2022-12-15T20:49:26.313Z,88.79
2022-12-15T20:51:55.923Z,89.27
2022-12-15T20:54:27.457Z,89.08
2022-12-15T20:57:03.654Z,89.31
2022-12-15T20:59:30.797Z,88.87
2022-12-15T21:02:01.915Z,89.15
2022-12-15T21:04:35.021Z,88.82
2022-12-15T21:07:10.218Z,89.17
2022-12-15T21:09:39.566Z,89.34
2022-12-15T21:12:30.151Z,89.14
2022-12-15T21:15:03.227Z,88.87
2022-12-15T21:17:36.321Z,89.50
2022-12-15T21:20:18.392Z,89.46
2022-12-15T21:22:48.450Z,89.46
2022-12-15T21:25:29.705Z,89.02
2022-12-15T21:27:56.920Z,89.28
2022-12-15T21:30:29.844Z,89.22
2022-12-15T21:33:00.836Z,89.44
2022-12-15T21:35:35.400Z,89.77
2022-12-15T21:38:19.127Z,89.20
2022-12-15T21:40:57.691Z,89.07
2022-12-15T21:43:43.584Z,89.24
2022-12-15T21:46:17.388Z,88.95
2022-12-15T21:49:05.303Z,89.10
2022-12-15T21:51:38.073Z,88.98
2022-12-15T21:54:34.805Z,89.27
2022-12-15T21:57:22.856Z,88.89
2022-12-15T21:59:55.375Z,88.93
2022-12-15T22:02:26.996Z,89.05
2022-12-15T22:04:54.844Z,88.87
2022-12-15T22:07:35.233Z,88.85
2022-12-15T22:10:07.433Z,88.85
2022-12-15T22:12:55.906Z,88.68
2022-12-15T22:15:34.109Z,88.82
2022-12-15T22:18:15.927Z,88.99
2022-12-15T22:20:52.670Z,88.97
2022-12-15T22:23:30.387Z,89.28
2022-12-15T22:26:04.289Z,89.11
2022-12-15T22:28:41.839Z,89.33
2022-12-15T22:31:18.248Z,89.55
2022-12-15T22:33:51.407Z,89.46
2022-12-15T22:36:21.650Z,89.69
2022-12-15T22:38:51.982Z,89.77
2022-12-15T22:41:33.001Z,90.23
2022-12-15T22:44:16.094Z,90.03
2022-12-15T22:47:01.511Z,90.43
2022-12-15T22:49:33.435Z,90.82
2022-12-15T22:52:26.056Z,89.95
2022-12-15T22:55:10.352Z,90.03
2022-12-15T22:57:48.849Z,90.24
2022-12-15T23:00:38.724Z,90.27
2022-12-15T23:03:19.864Z,89.86
2022-12-15T23:06:04.240Z,90.24
2022-12-15T23:08:36.012Z,90.59
2022-12-15T23:11:22.007Z,90.19
2022-12-15T23:13:53.711Z,90.50
2022-12-15T23:16:31.717Z,90.29
2022-12-15T23:19:01.780Z,90.20
2022-12-15T23:21:44.518Z,90.89
2022-12-15T23:24:18.890Z,90.24
2022-12-15T23:27:01.361Z,90.48
2022-12-15T23:29:54.322Z,90.42
2022-12-15T23:32:22.198Z,90.73
2022-12-15T23:34:51.810Z,91.14
2022-12-15T23:37:21.592Z,90.98
2022-12-15T23:39:49.847Z,91.16
2022-12-15T23:42:25.281Z,92.38
2022-12-15T23:44:56.292Z,91.92
2022-12-15T23:47:29.960Z,91.29
2022-12-15T23:49:59.080Z,91.49
2022-12-15T23:52:37.904Z,91.27
2022-12-15T23:55:08.890Z,91.37
2022-12-15T23:57:39.487Z,91.37
